Maersk Flanders — PCFK — position and weather

sailwx.info

Track history (hours):
 
Tides and Currents Weather Stations Pressure Air Temp Water Temp Dewpoint Dewpoint Depression Visibility Wind Speed Wind Dir Waves Ship Positions

Maersk Flanders

Last reported at 2017-Nov-18 10:32 UTC. Time now 2017-Nov-18 16:04 UTC.
Position N 55°27' E 015°47'.

Length 111 m; draft 6 m.

Type: Ship. MMSI: 244889000.

Date/timePositionNaut miles runAvg speedWind from/ knotsBaromVisibWave heightAir tempDewpointWater temp
2017-Nov-18 10:32N 55°27' E 015°47'114.5
2017-Nov-18 10:29N 55°27' E 015°45'714.8
2017-Nov-18 10:00N 55°26' E 015°33'714.9
2017-Nov-18 09:31N 55°25' E 015°20'815.1
2017-Nov-18 09:01N 55°25' E 015°07'815.2
2017-Nov-18 08:31N 55°24' E 014°54'714.8
2017-Nov-18 08:01N 55°23' E 014°41'815.3
2017-Nov-18 07:31N 55°17' E 014°33'815.3
2017-Nov-18 07:01N 55°11' E 014°23'714.8
2017-Nov-18 06:31N 55°06' E 014°15'714.3
2017-Nov-18 06:00N 55°01' E 014°05'1314.8
2017-Nov-18 05:07N 54°57' E 013°44'214.7
2017-Nov-18 04:57N 54°56' E 013°40'4015.0
2017-Nov-18 02:16N 54°41' E 012°35'415.6
2017-Nov-18 02:00N 54°39' E 012°29'3013.2
2017-Nov-17 23:45N 54°26' E 011°43'415.2
2017-Nov-17 23:30N 54°27' E 011°37'815.4
2017-Nov-17 23:00N 54°31' E 011°25'815.2
2017-Nov-17 22:30N 54°34' E 011°13'714.8
2017-Nov-17 22:00N 54°35' E 011°01'714.9
2017-Nov-17 21:30N 54°34' E 010°48'714.8
2017-Nov-17 21:00N 54°33' E 010°35'27 7.6
2017-Nov-17 17:25N 54°21' E 009°54'3 8.5
2017-Nov-17 17:00N 54°22' E 009°48'4 8.2
2017-Nov-17 16:30N 54°19' E 009°43'4 7.6
2017-Nov-17 16:00N 54°16' E 009°38'3 5.8
2017-Nov-17 15:30N 54°14' E 009°36'4 8.3
2017-Nov-17 15:00N 54°11' E 009°30'4 8.6
2017-Nov-17 14:30N 54°10' E 009°24'1 2.4
2017-Nov-17 14:00N 54°09' E 009°22'2 3.1
2017-Nov-17 13:30N 54°08' E 009°20'4 8.3
2017-Nov-17 13:00N 54°04' E 009°19'2 3.4
2017-Nov-17 12:31N 54°02' E 009°18'3 6.8
2017-Nov-17 12:01N 53°59' E 009°17'4 8.2
2017-Nov-17 11:30N 53°56' E 009°12'3 5.7
2017-Nov-17 11:00N 53°54' E 009°09'0 0.0
2017-Nov-17 10:30N 53°54' E 009°09'2 3.2
2017-Nov-17 10:01N 53°53' E 009°06'0 0.3
2017-Nov-17 09:30N 53°53' E 009°07'3 5.3
2017-Nov-17 09:00N 53°52' E 009°03'815.4
2017-Nov-17 08:30N 53°50' E 008°50'713.1
2017-Nov-17 08:00N 53°54' E 008°41'815.8
2017-Nov-17 07:30N 53°58' E 008°29'815.8
2017-Nov-17 07:00N 53°60' E 008°16'612.5
2017-Nov-17 06:30N 53°59' E 008°05'815.1
2017-Nov-17 06:00N 54°03' E 007°54'22110.4
2017-Nov-16 08:44N 51°34' E 003°24'313.1
2017-Nov-16 08:31N 51°31' E 003°26'612.0
2017-Nov-16 08:00N 51°27' E 003°33'4 8.7
2017-Nov-16 07:30N 51°27' E 003°40'612.7
2017-Nov-16 07:00N 51°22' E 003°47'612.8
2017-Nov-16 06:31N 51°23' E 003°57'4 7.3
2017-Nov-16 06:01N 51°24' E 004°02'612.2
2017-Nov-16 05:31N 51°24' E 004°12'5 9.0
2017-Nov-16 05:00N 51°21' E 004°17'0 0.0
2017-Nov-16 04:30N 51°21' E 004°17'0 0.0
2017-Nov-16 04:01N 51°21' E 004°17'1 1.6
2017-Nov-16 03:30N 51°20' E 004°18'3 5.0
2017-Nov-16 02:58N 51°18' E 004°20'0 0.0
2017-Nov-16 02:28N 51°18' E 004°20'0 0.0
2017-Nov-16 01:52N 51°18' E 004°20'0 0.0
2017-Nov-16 01:28N 51°18' E 004°20'0 0.0
2017-Nov-16 00:58N 51°18' E 004°20'0 0.0
2017-Nov-16 00:28N 51°18' E 004°20'0 0.0
2017-Nov-15 23:58N 51°18' E 004°20'0 0.0
2017-Nov-15 23:28N 51°18' E 004°20'0 0.0
2017-Nov-15 22:55N 51°18' E 004°20'0 0.0
2017-Nov-15 22:28N 51°18' E 004°20'0 0.0
2017-Nov-15 21:55N 51°18' E 004°20'0 0.0
2017-Nov-15 21:25N 51°18' E 004°20'0 0.0
2017-Nov-15 20:55N 51°18' E 004°20'0 0.0
2017-Nov-15 20:28N 51°18' E 004°20'0 0.0
2017-Nov-15 19:52N 51°18' E 004°20'0 0.0
2017-Nov-15 19:10N 51°18' E 004°20'0 0.0
2017-Nov-15 18:55N 51°18' E 004°20'0 0.0
2017-Nov-15 18:25N 51°18' E 004°20'0 0.0
2017-Nov-15 17:58N 51°18' E 004°20'0 0.0
2017-Nov-15 17:25N 51°18' E 004°20'0 0.0
2017-Nov-15 16:49N 51°18' E 004°20'0 0.0
2017-Nov-15 16:28N 51°18' E 004°20'0 0.0
2017-Nov-15 15:58N 51°18' E 004°20'0 0.0
2017-Nov-15 15:22N 51°18' E 004°20'0 0.0
2017-Nov-15 14:58N 51°18' E 004°20'0 0.0
2017-Nov-15 14:19N 51°18' E 004°20'0 0.0
2017-Nov-15 13:58N 51°18' E 004°20'0 0.0
2017-Nov-15 13:28N 51°18' E 004°20'0 0.0
2017-Nov-15 12:58N 51°18' E 004°20'0 0.0
2017-Nov-15 12:28N 51°18' E 004°20'0 0.0
2017-Nov-15 11:49N 51°18' E 004°20'0 0.0
2017-Nov-15 11:22N 51°18' E 004°20'0 0.0
2017-Nov-15 10:58N 51°18' E 004°20'0 0.0
2017-Nov-15 10:22N 51°18' E 004°20'0 0.0
2017-Nov-15 09:58N 51°18' E 004°20'0 0.0
2017-Nov-15 09:10N 51°18' E 004°20'0 0.0
2017-Nov-15 08:58N 51°18' E 004°20'0 0.0
2017-Nov-15 08:28N 51°18' E 004°20'0 0.0
2017-Nov-15 07:40N 51°18' E 004°20'0 0.0
2017-Nov-15 07:28N 51°18' E 004°20'0 0.0
2017-Nov-15 06:58N 51°18' E 004°20'0 0.0
2017-Nov-15 06:28N 51°18' E 004°20'0 0.0
2017-Nov-15 05:55N 51°18' E 004°20'0 0.0
2017-Nov-15 05:28N 51°18' E 004°20'0 0.0
2017-Nov-15 04:58N 51°18' E 004°20'0 0.0
2017-Nov-15 04:28N 51°18' E 004°20'0 0.0
2017-Nov-15 03:58N 51°18' E 004°20'0 0.0
2017-Nov-15 03:28N 51°18' E 004°20'0 0.0
2017-Nov-15 02:55N 51°18' E 004°20'0 0.0
2017-Nov-15 02:28N 51°18' E 004°20'0 0.0
2017-Nov-15 01:58N 51°18' E 004°20'0 0.0
2017-Nov-15 01:19N 51°18' E 004°20'0 0.0
2017-Nov-15 00:28N 51°18' E 004°20'0 0.0
2017-Nov-14 23:55N 51°18' E 004°20'0 0.0
2017-Nov-14 23:28N 51°18' E 004°20'0 0.0
2017-Nov-14 22:58N 51°18' E 004°20'0 0.0
2017-Nov-14 22:28N 51°18' E 004°20'0 0.0
2017-Nov-14 21:58N 51°18' E 004°20'0 0.0
2017-Nov-14 21:28N 51°18' E 004°20'0 0.0
2017-Nov-14 20:58N 51°18' E 004°20'0 0.0
2017-Nov-14 20:25N 51°18' E 004°20'0 0.0
2017-Nov-14 19:46N 51°18' E 004°20'0 0.0
2017-Nov-14 19:28N 51°18' E 004°20'0 0.0
2017-Nov-14 18:46N 51°18' E 004°20'0 0.0
2017-Nov-14 18:28N 51°18' E 004°20'0 0.0
2017-Nov-14 17:40N 51°18' E 004°20'0 0.0
2017-Nov-14 17:28N 51°18' E 004°20'0 0.0
2017-Nov-14 16:58N 51°18' E 004°20'0 0.0
2017-Nov-14 16:16N 51°18' E 004°20'0 0.0
2017-Nov-14 15:58N 51°18' E 004°20'0 0.0
2017-Nov-14 15:16N 51°18' E 004°20'0 0.0
2017-Nov-14 14:58N 51°18' E 004°20'0 0.0
2017-Nov-14 14:28N 51°18' E 004°20'0 0.0
2017-Nov-14 12:19N 51°18' E 004°20'0 0.0
2017-Nov-14 11:43N 51°18' E 004°20'0 0.0
2017-Nov-14 11:28N 51°18' E 004°20'0 0.0
2017-Nov-14 10:52N 51°18' E 004°20'0 0.0
2017-Nov-14 10:16N 51°18' E 004°20'0 0.0
2017-Nov-14 09:46N 51°18' E 004°20'0 0.0
2017-Nov-14 09:25N 51°18' E 004°20'0 0.0
2017-Nov-14 08:58N 51°18' E 004°20'0 0.0
2017-Nov-14 08:28N 51°18' E 004°20'0 0.0
2017-Nov-14 07:58N 51°18' E 004°20'0 0.0
2017-Nov-14 07:28N 51°18' E 004°20'0 0.0
2017-Nov-14 06:58N 51°18' E 004°20'0 0.0
2017-Nov-14 06:28N 51°18' E 004°20'0 0.0
2017-Nov-14 05:55N 51°18' E 004°20'0 0.0
2017-Nov-14 05:28N 51°18' E 004°20'0 0.0
2017-Nov-14 04:58N 51°18' E 004°20'0 0.0
2017-Nov-14 04:28N 51°18' E 004°20'0 0.0
2017-Nov-14 03:58N 51°18' E 004°20'0 0.0
2017-Nov-14 03:28N 51°18' E 004°20'0 0.0
2017-Nov-14 02:58N 51°18' E 004°20'0 0.0
2017-Nov-14 02:25N 51°18' E 004°20'0 0.0
2017-Nov-14 01:58N 51°18' E 004°20'0 0.0
2017-Nov-14 01:28N 51°18' E 004°20'0 0.0
2017-Nov-14 00:58N 51°18' E 004°20'1 2.1
2017-Nov-14 00:31N 51°19' E 004°19'3 5.0
2017-Nov-14 00:00N 51°21' E 004°17'0 0.2
2017-Nov-13 23:31N 51°21' E 004°17'1 2.9
2017-Nov-13 23:00N 51°21' E 004°15'4 7.6
2017-Nov-13 22:30N 51°23' E 004°09'612.2
2017-Nov-13 22:00N 51°26' E 004°01'59 2.9
2017-Nov-13 01:52N 51°27' E 002°26'0 0.5
2017-Nov-13 01:26N 51°28' E 002°26'0 0.5
2017-Nov-13 00:52N 51°28' E 002°26'0 0.6
2017-Nov-13 00:30N 51°28' E 002°26'2 3.9
2017-Nov-12 23:59N 51°29' E 002°28'4 6.6
2017-Nov-12 23:22N 51°33' E 002°32'2 6.6
2017-Nov-12 23:00N 51°34' E 002°35'4 3.3
2017-Nov-12 21:43N 51°36' E 002°41'0 2.0
2017-Nov-12 21:29N 51°35' E 002°42'3 2.7
2017-Nov-12 20:23N 51°32' E 002°41'1 2.9
2017-Nov-12 19:57N 51°31' E 002°41'2 2.4
2017-Nov-12 19:16N 51°30' E 002°41'1 1.4
2017-Nov-12 18:46N 51°29' E 002°41'0 0.2
2017-Nov-12 18:30N 51°29' E 002°41'1 1.0
2017-Nov-12 17:59N 51°28' E 002°41'1 2.6
2017-Nov-12 17:30N 51°28' E 002°39'3 6.1
2017-Nov-12 16:59N 51°26' E 002°34'4 4.9
2017-Nov-12 16:13N 51°23' E 002°33'1 5.2
2017-Nov-12 15:59N 51°22' E 002°33'2 4.5
2017-Nov-12 15:28N 51°19' E 002°33'0 0.1
2017-Nov-12 15:00N 51°19' E 002°33'3 4.6
2017-Nov-12 14:26N 51°22' E 002°31'510.5
2017-Nov-12 13:59N 51°20' E 002°24'510.8
2017-Nov-12 13:28N 51°18' E 002°16'510.9
2017-Nov-12 13:00N 51°15' E 002°09'611.5
2017-Nov-12 12:31N 51°12' E 002°01'612.1
2017-Nov-12 12:00N 51°09' E 001°53'612.4
2017-Nov-12 11:31N 51°05' E 001°45'612.7
2017-Nov-12 11:01N 51°01' E 001°38'713.0
2017-Nov-12 10:30N 50°56' E 001°31'6612.2
2017-Nov-12 05:06N 50°20' E 000°03'113.7
2017-Nov-12 05:01N 50°20' E 000°02'713.9
2017-Nov-12 04:30N 50°18' W 000°09'714.3
2017-Nov-12 04:00N 50°16' W 000°20'714.7
2017-Nov-12 03:31N 50°14' W 000°31'814.9
2017-Nov-12 03:00N 50°12' W 000°42'915.2
2017-Nov-12 02:23N 50°09' W 000°56'615.6
2017-Nov-12 02:00N 50°08' W 001°05'815.5
2017-Nov-12 01:30N 50°06' W 001°17'815.2
2017-Nov-12 01:00N 50°04' W 001°28'714.9
2017-Nov-12 00:30N 50°02' W 001°39'714.6
2017-Nov-12 00:00N 50°00' W 001°50'714.1
2017-Nov-11 23:30N 49°59' W 002°01'9912.4
2017-Nov-11 15:32N 49°18' W 004°20'712.2
2017-Nov-11 14:59N 49°14' W 004°28'2712.4
2017-Nov-11 12:49N 48°60' W 005°04'912.8
2017-Nov-11 12:06N 48°55' W 005°16'313.1
2017-Nov-11 11:53N 48°54' W 005°19'513.0
2017-Nov-11 11:30N 48°51' W 005°26'713.2
2017-Nov-11 10:59N 48°47' W 005°34'1212.5
2017-Nov-11 10:03N 48°37' W 005°44'412.4
2017-Nov-11 09:42N 48°33' W 005°47'512.3
2017-Nov-11 09:17N 48°29' W 005°51'912.5
2017-Nov-11 08:35N 48°21' W 005°57'512.5
2017-Nov-11 08:11N 48°17' W 006°02'312.2
2017-Nov-11 07:58N 48°15' W 006°03'812.6
2017-Nov-11 07:21N 48°08' W 006°09'512.5
2017-Nov-11 06:57N 48°04' W 006°12'613.0
2017-Nov-11 06:29N 47°59' W 006°17'613.0
2017-Nov-11 06:00N 47°53' W 006°22'712.9
2017-Nov-11 05:29N 47°47' W 006°27'812.7
2017-Nov-11 04:52N 47°41' W 006°33'612.4
2017-Nov-11 04:24N 47°35' W 006°37'912.2
2017-Nov-11 03:40N 47°27' W 006°42'211.9
2017-Nov-11 03:30N 47°26' W 006°43'612.3
2017-Nov-11 03:00N 47°20' W 006°47'612.7
2017-Nov-11 02:30N 47°15' W 006°52'712.5
2017-Nov-11 01:56N 47°09' W 006°57'712.6
2017-Nov-11 01:23N 47°02' W 007°02'1112.7
2017-Nov-11 00:30N 46°52' W 007°10'46711.2
2017-Nov-09 06:53N 39°22' W 009°57'3 8.5
2017-Nov-09 06:30N 39°18' W 009°57'4 8.6
2017-Nov-09 06:00N 39°14' W 009°57'4 8.6
2017-Nov-09 05:30N 39°10' W 009°57'4 8.5
2017-Nov-09 05:00N 39°06' W 009°57'4 8.6
2017-Nov-09 04:30N 39°01' W 009°57'4 8.8
2017-Nov-09 04:00N 38°57' W 009°57'4 8.8
2017-Nov-09 03:30N 38°53' W 009°57'4 8.5
2017-Nov-09 03:00N 38°48' W 009°57'4 8.6
2017-Nov-09 02:30N 38°44' W 009°57'4 8.0
2017-Nov-09 02:00N 38°40' W 009°56'4 7.7
2017-Nov-09 01:30N 38°36' W 009°55'4 7.3
2017-Nov-09 01:00N 38°33' W 009°54'4 7.4
2017-Nov-09 00:30N 38°29' W 009°53'4 7.8
2017-Nov-09 00:00N 38°25' W 009°52'4 7.8
2017-Nov-08 23:30N 38°22' W 009°51'4 7.6
2017-Nov-08 23:00N 38°18' W 009°50'4 7.5
2017-Nov-08 22:30N 38°14' W 009°49'4 7.1
2017-Nov-08 22:00N 38°11' W 009°48'8 7.1
2017-Nov-08 20:57N 38°03' W 009°46'3 7.2
2017-Nov-08 20:29N 38°00' W 009°45'4 7.2
2017-Nov-08 19:57N 37°56' W 009°44'7 7.3
2017-Nov-08 19:02N 37°50' W 009°42'0 6.9
2017-Nov-08 18:59N 37°49' W 009°42'3 7.4
2017-Nov-08 18:30N 37°46' W 009°40'6 8.1
2017-Nov-08 17:48N 37°41' W 009°39'3 8.5
2017-Nov-08 17:28N 37°38' W 009°38'  
Track history (hours):
 
Tides and Currents Weather Stations Pressure Air Temp Water Temp Dewpoint Dewpoint Depression Visibility Wind Speed Wind Dir Waves Ship Positions

Maersk Flanders

Last reported at 2017-Nov-18 10:32 UTC. Time now 2017-Nov-18 16:04 UTC.
Position N 55°27' E 015°47'.

Length 111 m; draft 6 m.

Type: Ship. MMSI: 244889000.

Date/timePositionNaut miles runAvg speedWind from/ knotsBaromVisibWave heightAir tempDewpointWater temp
2017-Nov-18 10:32N 55°27' E 015°47'114.5
2017-Nov-18 10:29N 55°27' E 015°45'714.8
2017-Nov-18 10:00N 55°26' E 015°33'714.9
2017-Nov-18 09:31N 55°25' E 015°20'815.1
2017-Nov-18 09:01N 55°25' E 015°07'815.2
2017-Nov-18 08:31N 55°24' E 014°54'714.8
2017-Nov-18 08:01N 55°23' E 014°41'815.3
2017-Nov-18 07:31N 55°17' E 014°33'815.3
2017-Nov-18 07:01N 55°11' E 014°23'714.8
2017-Nov-18 06:31N 55°06' E 014°15'714.3
2017-Nov-18 06:00N 55°01' E 014°05'1314.8
2017-Nov-18 05:07N 54°57' E 013°44'214.7
2017-Nov-18 04:57N 54°56' E 013°40'4015.0
2017-Nov-18 02:16N 54°41' E 012°35'415.6
2017-Nov-18 02:00N 54°39' E 012°29'3013.2
2017-Nov-17 23:45N 54°26' E 011°43'415.2
2017-Nov-17 23:30N 54°27' E 011°37'815.4
2017-Nov-17 23:00N 54°31' E 011°25'815.2
2017-Nov-17 22:30N 54°34' E 011°13'714.8
2017-Nov-17 22:00N 54°35' E 011°01'714.9
2017-Nov-17 21:30N 54°34' E 010°48'714.8
2017-Nov-17 21:00N 54°33' E 010°35'27 7.6
2017-Nov-17 17:25N 54°21' E 009°54'3 8.5
2017-Nov-17 17:00N 54°22' E 009°48'4 8.2
2017-Nov-17 16:30N 54°19' E 009°43'4 7.6
2017-Nov-17 16:00N 54°16' E 009°38'3 5.8
2017-Nov-17 15:30N 54°14' E 009°36'4 8.3
2017-Nov-17 15:00N 54°11' E 009°30'4 8.6
2017-Nov-17 14:30N 54°10' E 009°24'1 2.4
2017-Nov-17 14:00N 54°09' E 009°22'2 3.1
2017-Nov-17 13:30N 54°08' E 009°20'4 8.3
2017-Nov-17 13:00N 54°04' E 009°19'2 3.4
2017-Nov-17 12:31N 54°02' E 009°18'3 6.8
2017-Nov-17 12:01N 53°59' E 009°17'4 8.2
2017-Nov-17 11:30N 53°56' E 009°12'3 5.7
2017-Nov-17 11:00N 53°54' E 009°09'0 0.0
2017-Nov-17 10:30N 53°54' E 009°09'2 3.2
2017-Nov-17 10:01N 53°53' E 009°06'0 0.3
2017-Nov-17 09:30N 53°53' E 009°07'3 5.3
2017-Nov-17 09:00N 53°52' E 009°03'815.4
2017-Nov-17 08:30N 53°50' E 008°50'713.1
2017-Nov-17 08:00N 53°54' E 008°41'815.8
2017-Nov-17 07:30N 53°58' E 008°29'815.8
2017-Nov-17 07:00N 53°60' E 008°16'612.5
2017-Nov-17 06:30N 53°59' E 008°05'815.1
2017-Nov-17 06:00N 54°03' E 007°54'22110.4
2017-Nov-16 08:44N 51°34' E 003°24'313.1
2017-Nov-16 08:31N 51°31' E 003°26'612.0
2017-Nov-16 08:00N 51°27' E 003°33'4 8.7
2017-Nov-16 07:30N 51°27' E 003°40'612.7
2017-Nov-16 07:00N 51°22' E 003°47'612.8
2017-Nov-16 06:31N 51°23' E 003°57'4 7.3
2017-Nov-16 06:01N 51°24' E 004°02'612.2
2017-Nov-16 05:31N 51°24' E 004°12'5 9.0
2017-Nov-16 05:00N 51°21' E 004°17'0 0.0
2017-Nov-16 04:30N 51°21' E 004°17'0 0.0
2017-Nov-16 04:01N 51°21' E 004°17'1 1.6
2017-Nov-16 03:30N 51°20' E 004°18'3 5.0
2017-Nov-16 02:58N 51°18' E 004°20'0 0.0
2017-Nov-16 02:28N 51°18' E 004°20'0 0.0
2017-Nov-16 01:52N 51°18' E 004°20'0 0.0
2017-Nov-16 01:28N 51°18' E 004°20'0 0.0
2017-Nov-16 00:58N 51°18' E 004°20'0 0.0
2017-Nov-16 00:28N 51°18' E 004°20'0 0.0
2017-Nov-15 23:58N 51°18' E 004°20'0 0.0
2017-Nov-15 23:28N 51°18' E 004°20'0 0.0
2017-Nov-15 22:55N 51°18' E 004°20'0 0.0
2017-Nov-15 22:28N 51°18' E 004°20'0 0.0
2017-Nov-15 21:55N 51°18' E 004°20'0 0.0
2017-Nov-15 21:25N 51°18' E 004°20'0 0.0
2017-Nov-15 20:55N 51°18' E 004°20'0 0.0
2017-Nov-15 20:28N 51°18' E 004°20'0 0.0
2017-Nov-15 19:52N 51°18' E 004°20'0 0.0
2017-Nov-15 19:10N 51°18' E 004°20'0 0.0
2017-Nov-15 18:55N 51°18' E 004°20'0 0.0
2017-Nov-15 18:25N 51°18' E 004°20'0 0.0
2017-Nov-15 17:58N 51°18' E 004°20'0 0.0
2017-Nov-15 17:25N 51°18' E 004°20'0 0.0
2017-Nov-15 16:49N 51°18' E 004°20'0 0.0
2017-Nov-15 16:28N 51°18' E 004°20'0 0.0
2017-Nov-15 15:58N 51°18' E 004°20'0 0.0
2017-Nov-15 15:22N 51°18' E 004°20'0 0.0
2017-Nov-15 14:58N 51°18' E 004°20'0 0.0
2017-Nov-15 14:19N 51°18' E 004°20'0 0.0
2017-Nov-15 13:58N 51°18' E 004°20'0 0.0
2017-Nov-15 13:28N 51°18' E 004°20'0 0.0
2017-Nov-15 12:58N 51°18' E 004°20'0 0.0
2017-Nov-15 12:28N 51°18' E 004°20'0 0.0
2017-Nov-15 11:49N 51°18' E 004°20'0 0.0
2017-Nov-15 11:22N 51°18' E 004°20'0 0.0
2017-Nov-15 10:58N 51°18' E 004°20'0 0.0
2017-Nov-15 10:22N 51°18' E 004°20'0 0.0
2017-Nov-15 09:58N 51°18' E 004°20'0 0.0
2017-Nov-15 09:10N 51°18' E 004°20'0 0.0
2017-Nov-15 08:58N 51°18' E 004°20'0 0.0
2017-Nov-15 08:28N 51°18' E 004°20'0 0.0
2017-Nov-15 07:40N 51°18' E 004°20'0 0.0
2017-Nov-15 07:28N 51°18' E 004°20'0 0.0
2017-Nov-15 06:58N 51°18' E 004°20'0 0.0
2017-Nov-15 06:28N 51°18' E 004°20'0 0.0
2017-Nov-15 05:55N 51°18' E 004°20'0 0.0
2017-Nov-15 05:28N 51°18' E 004°20'0 0.0
2017-Nov-15 04:58N 51°18' E 004°20'0 0.0
2017-Nov-15 04:28N 51°18' E 004°20'0 0.0
2017-Nov-15 03:58N 51°18' E 004°20'0 0.0
2017-Nov-15 03:28N 51°18' E 004°20'0 0.0
2017-Nov-15 02:55N 51°18' E 004°20'0 0.0
2017-Nov-15 02:28N 51°18' E 004°20'0 0.0
2017-Nov-15 01:58N 51°18' E 004°20'0 0.0
2017-Nov-15 01:19N 51°18' E 004°20'0 0.0
2017-Nov-15 00:28N 51°18' E 004°20'0 0.0
2017-Nov-14 23:55N 51°18' E 004°20'0 0.0
2017-Nov-14 23:28N 51°18' E 004°20'0 0.0
2017-Nov-14 22:58N 51°18' E 004°20'0 0.0
2017-Nov-14 22:28N 51°18' E 004°20'0 0.0
2017-Nov-14 21:58N 51°18' E 004°20'0 0.0
2017-Nov-14 21:28N 51°18' E 004°20'0 0.0
2017-Nov-14 20:58N 51°18' E 004°20'0 0.0
2017-Nov-14 20:25N 51°18' E 004°20'0 0.0
2017-Nov-14 19:46N 51°18' E 004°20'0 0.0
2017-Nov-14 19:28N 51°18' E 004°20'0 0.0
2017-Nov-14 18:46N 51°18' E 004°20'0 0.0
2017-Nov-14 18:28N 51°18' E 004°20'0 0.0
2017-Nov-14 17:40N 51°18' E 004°20'0 0.0
2017-Nov-14 17:28N 51°18' E 004°20'0 0.0
2017-Nov-14 16:58N 51°18' E 004°20'0 0.0
2017-Nov-14 16:16N 51°18' E 004°20'0 0.0
2017-Nov-14 15:58N 51°18' E 004°20'0 0.0
2017-Nov-14 15:16N 51°18' E 004°20'0 0.0
2017-Nov-14 14:58N 51°18' E 004°20'0 0.0
2017-Nov-14 14:28N 51°18' E 004°20'0 0.0
2017-Nov-14 12:19N 51°18' E 004°20'0 0.0
2017-Nov-14 11:43N 51°18' E 004°20'0 0.0
2017-Nov-14 11:28N 51°18' E 004°20'0 0.0
2017-Nov-14 10:52N 51°18' E 004°20'0 0.0
2017-Nov-14 10:16N 51°18' E 004°20'0 0.0
2017-Nov-14 09:46N 51°18' E 004°20'0 0.0
2017-Nov-14 09:25N 51°18' E 004°20'0 0.0
2017-Nov-14 08:58N 51°18' E 004°20'0 0.0
2017-Nov-14 08:28N 51°18' E 004°20'0 0.0
2017-Nov-14 07:58N 51°18' E 004°20'0 0.0
2017-Nov-14 07:28N 51°18' E 004°20'0 0.0
2017-Nov-14 06:58N 51°18' E 004°20'0 0.0
2017-Nov-14 06:28N 51°18' E 004°20'0 0.0
2017-Nov-14 05:55N 51°18' E 004°20'0 0.0
2017-Nov-14 05:28N 51°18' E 004°20'0 0.0
2017-Nov-14 04:58N 51°18' E 004°20'0 0.0
2017-Nov-14 04:28N 51°18' E 004°20'0 0.0
2017-Nov-14 03:58N 51°18' E 004°20'0 0.0
2017-Nov-14 03:28N 51°18' E 004°20'0 0.0
2017-Nov-14 02:58N 51°18' E 004°20'0 0.0
2017-Nov-14 02:25N 51°18' E 004°20'0 0.0
2017-Nov-14 01:58N 51°18' E 004°20'0 0.0
2017-Nov-14 01:28N 51°18' E 004°20'0 0.0
2017-Nov-14 00:58N 51°18' E 004°20'1 2.1
2017-Nov-14 00:31N 51°19' E 004°19'3 5.0
2017-Nov-14 00:00N 51°21' E 004°17'0 0.2
2017-Nov-13 23:31N 51°21' E 004°17'1 2.9
2017-Nov-13 23:00N 51°21' E 004°15'4 7.6
2017-Nov-13 22:30N 51°23' E 004°09'612.2
2017-Nov-13 22:00N 51°26' E 004°01'59 2.9
2017-Nov-13 01:52N 51°27' E 002°26'0 0.5
2017-Nov-13 01:26N 51°28' E 002°26'0 0.5
2017-Nov-13 00:52N 51°28' E 002°26'0 0.6
2017-Nov-13 00:30N 51°28' E 002°26'2 3.9
2017-Nov-12 23:59N 51°29' E 002°28'4 6.6
2017-Nov-12 23:22N 51°33' E 002°32'2 6.6
2017-Nov-12 23:00N 51°34' E 002°35'4 3.3
2017-Nov-12 21:43N 51°36' E 002°41'0 2.0
2017-Nov-12 21:29N 51°35' E 002°42'3 2.7
2017-Nov-12 20:23N 51°32' E 002°41'1 2.9
2017-Nov-12 19:57N 51°31' E 002°41'2 2.4
2017-Nov-12 19:16N 51°30' E 002°41'1 1.4
2017-Nov-12 18:46N 51°29' E 002°41'0 0.2
2017-Nov-12 18:30N 51°29' E 002°41'1 1.0
2017-Nov-12 17:59N 51°28' E 002°41'1 2.6
2017-Nov-12 17:30N 51°28' E 002°39'3 6.1
2017-Nov-12 16:59N 51°26' E 002°34'4 4.9
2017-Nov-12 16:13N 51°23' E 002°33'1 5.2
2017-Nov-12 15:59N 51°22' E 002°33'2 4.5
2017-Nov-12 15:28N 51°19' E 002°33'0 0.1
2017-Nov-12 15:00N 51°19' E 002°33'3 4.6
2017-Nov-12 14:26N 51°22' E 002°31'510.5
2017-Nov-12 13:59N 51°20' E 002°24'510.8
2017-Nov-12 13:28N 51°18' E 002°16'510.9
2017-Nov-12 13:00N 51°15' E 002°09'611.5
2017-Nov-12 12:31N 51°12' E 002°01'612.1
2017-Nov-12 12:00N 51°09' E 001°53'612.4
2017-Nov-12 11:31N 51°05' E 001°45'612.7
2017-Nov-12 11:01N 51°01' E 001°38'713.0
2017-Nov-12 10:30N 50°56' E 001°31'6612.2
2017-Nov-12 05:06N 50°20' E 000°03'113.7
2017-Nov-12 05:01N 50°20' E 000°02'713.9
2017-Nov-12 04:30N 50°18' W 000°09'714.3
2017-Nov-12 04:00N 50°16' W 000°20'714.7
2017-Nov-12 03:31N 50°14' W 000°31'814.9
2017-Nov-12 03:00N 50°12' W 000°42'915.2
2017-Nov-12 02:23N 50°09' W 000°56'615.6
2017-Nov-12 02:00N 50°08' W 001°05'815.5
2017-Nov-12 01:30N 50°06' W 001°17'815.2
2017-Nov-12 01:00N 50°04' W 001°28'714.9
2017-Nov-12 00:30N 50°02' W 001°39'714.6
2017-Nov-12 00:00N 50°00' W 001°50'714.1
2017-Nov-11 23:30N 49°59' W 002°01'9912.4
2017-Nov-11 15:32N 49°18' W 004°20'712.2
2017-Nov-11 14:59N 49°14' W 004°28'2712.4
2017-Nov-11 12:49N 48°60' W 005°04'912.8
2017-Nov-11 12:06N 48°55' W 005°16'313.1
2017-Nov-11 11:53N 48°54' W 005°19'513.0
2017-Nov-11 11:30N 48°51' W 005°26'713.2
2017-Nov-11 10:59N 48°47' W 005°34'1212.5
2017-Nov-11 10:03N 48°37' W 005°44'412.4
2017-Nov-11 09:42N 48°33' W 005°47'512.3
2017-Nov-11 09:17N 48°29' W 005°51'912.5
2017-Nov-11 08:35N 48°21' W 005°57'512.5
2017-Nov-11 08:11N 48°17' W 006°02'312.2
2017-Nov-11 07:58N 48°15' W 006°03'812.6
2017-Nov-11 07:21N 48°08' W 006°09'512.5
2017-Nov-11 06:57N 48°04' W 006°12'613.0
2017-Nov-11 06:29N 47°59' W 006°17'613.0
2017-Nov-11 06:00N 47°53' W 006°22'712.9
2017-Nov-11 05:29N 47°47' W 006°27'812.7
2017-Nov-11 04:52N 47°41' W 006°33'612.4
2017-Nov-11 04:24N 47°35' W 006°37'912.2
2017-Nov-11 03:40N 47°27' W 006°42'211.9
2017-Nov-11 03:30N 47°26' W 006°43'612.3
2017-Nov-11 03:00N 47°20' W 006°47'612.7
2017-Nov-11 02:30N 47°15' W 006°52'712.5
2017-Nov-11 01:56N 47°09' W 006°57'712.6
2017-Nov-11 01:23N 47°02' W 007°02'1112.7
2017-Nov-11 00:30N 46°52' W 007°10'46711.2
2017-Nov-09 06:53N 39°22' W 009°57'3 8.5
2017-Nov-09 06:30N 39°18' W 009°57'4 8.6
2017-Nov-09 06:00N 39°14' W 009°57'4 8.6
2017-Nov-09 05:30N 39°10' W 009°57'4 8.5
2017-Nov-09 05:00N 39°06' W 009°57'4 8.6
2017-Nov-09 04:30N 39°01' W 009°57'4 8.8
2017-Nov-09 04:00N 38°57' W 009°57'4 8.8
2017-Nov-09 03:30N 38°53' W 009°57'4 8.5
2017-Nov-09 03:00N 38°48' W 009°57'4 8.6
2017-Nov-09 02:30N 38°44' W 009°57'4 8.0
2017-Nov-09 02:00N 38°40' W 009°56'4 7.7
2017-Nov-09 01:30N 38°36' W 009°55'4 7.3
2017-Nov-09 01:00N 38°33' W 009°54'4 7.4
2017-Nov-09 00:30N 38°29' W 009°53'4 7.8
2017-Nov-09 00:00N 38°25' W 009°52'4 7.8
2017-Nov-08 23:30N 38°22' W 009°51'4 7.6
2017-Nov-08 23:00N 38°18' W 009°50'4 7.5
2017-Nov-08 22:30N 38°14' W 009°49'4 7.1
2017-Nov-08 22:00N 38°11' W 009°48'8 7.1
2017-Nov-08 20:57N 38°03' W 009°46'3 7.2
2017-Nov-08 20:29N 38°00' W 009°45'4 7.2
2017-Nov-08 19:57N 37°56' W 009°44'7 7.3
2017-Nov-08 19:02N 37°50' W 009°42'0 6.9
2017-Nov-08 18:59N 37°49' W 009°42'3 7.4
2017-Nov-08 18:30N 37°46' W 009°40'6 8.1
2017-Nov-08 17:48N 37°41' W 009°39'3 8.5
2017-Nov-08 17:28N 37°38' W 009°38'  

Dump ship's entire track history